createdAt,value
2023-05-11T00:00:52.288Z,8.82
2023-05-11T00:04:35.235Z,8.85
2023-05-11T00:08:18.084Z,8.89
2023-05-11T00:12:01.670Z,8.87
2023-05-11T00:15:44.771Z,8.87
2023-05-11T00:19:31.385Z,8.88
2023-05-11T00:23:14.110Z,8.87
2023-05-11T00:26:56.894Z,8.87
2023-05-11T00:30:41.152Z,8.88
2023-05-11T00:34:23.993Z,8.88
2023-05-11T00:38:08.221Z,8.92
2023-05-11T00:41:50.999Z,8.94
2023-05-11T00:45:34.194Z,8.93
2023-05-11T00:49:21.319Z,8.95
2023-05-11T00:53:04.278Z,8.94
2023-05-11T00:56:49.298Z,8.90
2023-05-11T01:00:31.982Z,8.90
2023-05-11T01:04:14.778Z,8.87
2023-05-11T01:08:02.304Z,8.88
2023-05-11T01:11:52.970Z,8.88
2023-05-11T01:15:41.306Z,8.89
2023-05-11T01:19:33.341Z,8.90
2023-05-11T01:23:54.818Z,8.87
2023-05-11T01:28:05.197Z,8.86
2023-05-11T01:31:49.621Z,8.89
2023-05-11T01:35:34.346Z,8.90
2023-05-11T01:39:17.990Z,8.90
2023-05-11T01:43:03.227Z,8.90
2023-05-11T01:46:46.032Z,8.87
2023-05-11T01:50:30.450Z,8.86
2023-05-11T01:54:13.380Z,8.85
2023-05-11T01:57:57.066Z,8.83
2023-05-11T02:01:40.828Z,8.81
2023-05-11T02:05:25.529Z,8.80
2023-05-11T02:09:11.364Z,8.81
2023-05-11T02:12:54.503Z,8.80
2023-05-11T02:16:37.269Z,8.85
2023-05-11T02:20:20.974Z,8.83
2023-05-11T02:24:04.654Z,8.80
2023-05-11T02:27:48.665Z,8.82
2023-05-11T02:31:33.842Z,8.81
2023-05-11T02:35:18.721Z,8.77
2023-05-11T02:39:05.229Z,8.75
2023-05-11T02:42:50.990Z,8.75
2023-05-11T02:46:36.725Z,8.75
2023-05-11T02:50:20.377Z,8.73
2023-05-11T02:54:04.627Z,8.70
2023-05-11T02:57:48.869Z,8.68
2023-05-11T03:01:31.890Z,8.65
2023-05-11T03:05:15.727Z,8.66
2023-05-11T03:08:58.627Z,8.64
2023-05-11T03:12:41.334Z,8.59
2023-05-11T03:16:25.863Z,8.57
2023-05-11T03:20:10.643Z,8.53
2023-05-11T03:23:54.127Z,8.49
2023-05-11T03:27:37.649Z,8.50
2023-05-11T03:31:20.542Z,8.51
2023-05-11T03:35:05.024Z,8.50
2023-05-11T03:38:48.811Z,8.48
2023-05-11T03:42:32.162Z,8.45
2023-05-11T03:46:15.458Z,8.42
2023-05-11T03:49:59.087Z,8.42
2023-05-11T03:53:43.307Z,8.43
2023-05-11T03:57:26.827Z,8.44
2023-05-11T04:01:10.073Z,8.44
2023-05-11T04:04:53.427Z,8.46
2023-05-11T04:08:36.410Z,8.44
2023-05-11T04:12:23.275Z,8.44
2023-05-11T04:16:06.628Z,8.42
2023-05-11T04:19:49.543Z,8.40
2023-05-11T04:23:32.261Z,8.45
2023-05-11T04:27:16.485Z,8.49
2023-05-11T04:31:00.623Z,8.47
2023-05-11T04:34:46.078Z,8.37
2023-05-11T04:38:28.795Z,8.32
2023-05-11T04:42:11.532Z,8.36
2023-05-11T04:45:54.302Z,8.38
2023-05-11T04:49:39.522Z,8.37
2023-05-11T04:53:22.318Z,8.31
2023-05-11T04:57:05.063Z,8.28
2023-05-11T05:00:47.758Z,8.30
2023-05-11T05:04:30.957Z,8.36
2023-05-11T05:08:15.440Z,8.37
2023-05-11T05:11:58.234Z,8.35
2023-05-11T05:15:40.889Z,8.36
2023-05-11T05:19:23.545Z,8.34
2023-05-11T05:23:06.267Z,8.32
2023-05-11T05:26:51.480Z,8.31
2023-05-11T05:30:34.848Z,8.31
2023-05-11T05:34:17.621Z,8.31
2023-05-11T05:38:00.311Z,8.29
2023-05-11T05:41:43.093Z,8.29
2023-05-11T05:45:27.200Z,8.25
2023-05-11T05:49:12.602Z,8.24
2023-05-11T05:52:55.296Z,8.24
2023-05-11T05:56:40.986Z,8.25
2023-05-11T06:00:23.996Z,8.28
2023-05-11T06:04:08.277Z,8.31
2023-05-11T06:08:01.896Z,8.31
2023-05-11T06:11:54.054Z,8.31
2023-05-11T06:15:40.001Z,8.32
2023-05-11T06:19:26.045Z,8.35
2023-05-11T06:23:08.970Z,8.38
2023-05-11T06:26:51.657Z,8.43
2023-05-11T06:30:34.378Z,10.99
2023-05-11T06:34:19.198Z,10.82
2023-05-11T06:38:03.290Z,10.05
2023-05-11T06:41:45.957Z,9.68
2023-05-11T06:45:28.731Z,9.45
2023-05-11T06:49:11.521Z,9.30
2023-05-11T06:52:54.405Z,9.22
2023-05-11T06:56:38.688Z,9.16
2023-05-11T07:00:21.937Z,9.13
2023-05-11T07:04:04.823Z,9.10
2023-05-11T07:07:47.533Z,9.04
2023-05-11T07:11:31.717Z,9.01
2023-05-11T07:15:15.949Z,8.97
2023-05-11T07:18:58.655Z,8.93
2023-05-11T07:22:41.399Z,8.85
2023-05-11T07:26:24.152Z,8.85
2023-05-11T07:30:08.233Z,8.85
2023-05-11T07:33:53.252Z,8.86
2023-05-11T07:37:35.959Z,8.86
2023-05-11T07:41:19.206Z,8.87
2023-05-11T07:45:01.921Z,8.83
2023-05-11T07:48:45.027Z,8.80
2023-05-11T07:52:29.162Z,8.83
2023-05-11T07:56:12.295Z,8.84
2023-05-11T07:59:55.006Z,8.90
2023-05-11T08:03:37.809Z,8.94
2023-05-11T08:07:20.560Z,9.02
2023-05-11T08:11:05.900Z,9.03
2023-05-11T08:14:48.592Z,9.01
2023-05-11T08:18:31.342Z,9.01
2023-05-11T08:22:14.148Z,9.01
2023-05-11T08:25:57.264Z,9.02
2023-05-11T08:29:41.331Z,9.08
2023-05-11T08:33:36.718Z,9.14
2023-05-11T08:37:20.709Z,9.20
2023-05-11T08:41:04.920Z,9.22
2023-05-11T08:44:49.314Z,9.22
2023-05-11T08:48:32.296Z,9.24
2023-05-11T08:52:15.468Z,9.31
2023-05-11T08:56:01.098Z,9.37
2023-05-11T08:59:45.816Z,9.36
2023-05-11T09:03:31.071Z,9.38
2023-05-11T09:07:16.071Z,9.41
2023-05-11T09:10:59.621Z,9.43
2023-05-11T09:14:42.308Z,9.47
2023-05-11T09:18:25.014Z,9.49
2023-05-11T09:22:09.472Z,9.57
2023-05-11T09:25:52.200Z,9.63
2023-05-11T09:29:34.901Z,9.66
2023-05-11T09:33:25.734Z,9.63
2023-05-11T09:37:17.481Z,9.55
2023-05-11T09:41:03.161Z,9.54
2023-05-11T09:44:46.799Z,9.45
2023-05-11T09:48:31.872Z,9.42
2023-05-11T09:52:18.273Z,9.42
2023-05-11T09:56:04.322Z,9.48
2023-05-11T09:59:47.186Z,9.56
2023-05-11T10:03:30.272Z,9.60
2023-05-11T10:07:13.026Z,9.64
2023-05-11T10:10:57.365Z,9.66
2023-05-11T10:14:40.024Z,9.69
2023-05-11T10:18:22.910Z,9.65
2023-05-11T10:22:06.661Z,9.60
2023-05-11T10:25:49.724Z,9.58
2023-05-11T10:29:34.065Z,9.56
2023-05-11T10:33:18.118Z,9.63
2023-05-11T10:37:01.920Z,9.65
2023-05-11T10:40:47.085Z,9.70
2023-05-11T10:44:59.603Z,9.76
2023-05-11T10:49:06.522Z,9.84
2023-05-11T10:53:07.940Z,9.85
2023-05-11T10:57:01.786Z,9.85
2023-05-11T11:01:25.358Z,9.94
2023-05-11T11:05:10.848Z,9.97
2023-05-11T11:08:58.613Z,10.00
2023-05-11T11:12:42.019Z,11.19
2023-05-11T11:16:26.242Z,10.58
2023-05-11T11:20:10.176Z,10.37
2023-05-11T11:23:55.994Z,10.28
2023-05-11T11:27:56.918Z,10.22
2023-05-11T11:31:43.372Z,10.24
2023-05-11T11:35:46.409Z,10.23
2023-05-11T11:39:30.512Z,10.23
2023-05-11T11:43:18.880Z,10.24
2023-05-11T11:47:16.193Z,10.26
2023-05-11T11:51:04.373Z,10.30
2023-05-11T11:54:47.433Z,10.28
2023-05-11T11:59:00.601Z,10.31
2023-05-11T12:02:46.044Z,10.31
2023-05-11T12:06:37.051Z,10.31
2023-05-11T12:10:20.854Z,10.29
2023-05-11T12:14:03.964Z,10.26
2023-05-11T12:17:48.151Z,10.24
2023-05-11T12:21:32.725Z,10.24
2023-05-11T12:25:17.604Z,10.27
2023-05-11T12:29:08.523Z,10.30
2023-05-11T12:36:38.698Z,10.34
2023-05-11T12:40:21.475Z,10.35
2023-05-11T12:44:04.277Z,10.32
2023-05-11T12:47:47.824Z,10.32
2023-05-11T12:51:52.529Z,10.32
2023-05-11T12:55:35.370Z,10.35
2023-05-11T12:59:29.528Z,10.35
2023-05-11T13:03:12.491Z,10.41
2023-05-11T13:06:56.858Z,10.44
2023-05-11T13:10:39.627Z,10.52
2023-05-11T13:14:23.131Z,13.02
2023-05-11T13:18:08.920Z,14.02
2023-05-11T13:21:51.759Z,13.37
2023-05-11T13:25:37.144Z,12.62
2023-05-11T13:29:19.982Z,12.12
2023-05-11T13:33:02.772Z,11.82
2023-05-11T13:36:45.880Z,11.58
2023-05-11T13:40:28.851Z,11.45
2023-05-11T13:44:13.057Z,11.32
2023-05-11T13:47:56.408Z,11.16
2023-05-11T13:51:39.164Z,11.02
2023-05-11T13:55:22.403Z,10.91
2023-05-11T13:59:05.196Z,10.91
2023-05-11T14:02:50.694Z,10.89
2023-05-11T14:06:35.360Z,10.73
2023-05-11T14:10:18.473Z,10.69
2023-05-11T14:14:01.286Z,10.66
2023-05-11T14:17:44.181Z,10.65
2023-05-11T14:21:29.095Z,10.68
2023-05-11T14:25:11.962Z,10.64
2023-05-11T14:28:54.668Z,10.62
2023-05-11T14:32:37.678Z,10.62
2023-05-11T14:36:20.647Z,10.62
2023-05-11T14:40:05.390Z,10.61
2023-05-11T14:43:49.332Z,10.64
2023-05-11T14:47:32.822Z,10.66
2023-05-11T14:51:17.035Z,10.65
2023-05-11T14:54:59.910Z,10.67
2023-05-11T14:58:44.385Z,10.73
2023-05-11T15:02:27.380Z,10.68
2023-05-11T15:06:10.286Z,10.65
2023-05-11T15:09:53.328Z,10.56
2023-05-11T15:13:36.095Z,10.50
2023-05-11T15:17:27.794Z,10.55
2023-05-11T15:21:11.010Z,10.45
2023-05-11T15:24:53.656Z,10.41
2023-05-11T15:28:36.421Z,10.42
2023-05-11T15:32:21.109Z,10.39
2023-05-11T15:36:03.985Z,12.61
2023-05-11T15:39:46.754Z,13.36
2023-05-11T15:43:29.701Z,12.50
2023-05-11T15:47:13.034Z,11.95
2023-05-11T15:50:57.223Z,11.58
2023-05-11T15:54:40.247Z,11.36
2023-05-11T15:58:24.017Z,11.13
2023-05-11T16:02:12.418Z,10.95
2023-05-11T16:05:55.576Z,10.86
2023-05-11T16:09:39.680Z,10.81
2023-05-11T16:13:22.818Z,10.76
2023-05-11T16:17:05.921Z,10.71
2023-05-11T16:20:48.695Z,10.67
2023-05-11T16:24:34.339Z,10.63
2023-05-11T16:28:19.165Z,10.59
2023-05-11T16:32:02.040Z,10.60
2023-05-11T16:35:44.796Z,10.58
2023-05-11T16:39:27.808Z,10.61
2023-05-11T16:43:10.572Z,10.72
2023-05-11T16:46:54.865Z,10.70
2023-05-11T16:50:37.756Z,10.67
2023-05-11T16:54:20.959Z,10.63
2023-05-11T16:58:04.094Z,10.59
2023-05-11T17:01:46.895Z,10.60
2023-05-11T17:05:31.229Z,10.62
2023-05-11T17:09:14.412Z,10.64
2023-05-11T17:12:57.850Z,10.68
2023-05-11T17:16:41.635Z,10.69
2023-05-11T17:20:24.364Z,10.71
2023-05-11T17:24:08.838Z,10.74
2023-05-11T17:27:51.516Z,10.72
2023-05-11T17:31:34.509Z,10.72
2023-05-11T17:35:17.593Z,10.72
2023-05-11T17:39:01.352Z,10.77
2023-05-11T17:42:45.386Z,10.81
2023-05-11T17:46:29.831Z,10.76
2023-05-11T17:50:12.689Z,10.73
2023-05-11T17:53:56.084Z,10.68
2023-05-11T17:57:38.803Z,10.65
2023-05-11T18:01:22.927Z,10.63
2023-05-11T18:05:06.183Z,10.63
2023-05-11T18:08:49.043Z,10.72
2023-05-11T18:12:32.474Z,10.89
2023-05-11T18:16:15.221Z,10.91
2023-05-11T18:19:59.386Z,10.97
2023-05-11T18:23:42.445Z,11.03
2023-05-11T18:27:25.688Z,11.02
2023-05-11T18:31:08.389Z,11.03
2023-05-11T18:34:51.062Z,10.95
2023-05-11T18:38:35.121Z,10.98
2023-05-11T18:42:20.720Z,11.00
2023-05-11T18:46:08.061Z,10.97
2023-05-11T18:49:50.807Z,10.89
2023-05-11T18:53:34.968Z,10.91
2023-05-11T18:57:20.100Z,10.94
2023-05-11T19:01:04.156Z,11.00
2023-05-11T19:04:46.859Z,10.97
2023-05-11T19:08:29.871Z,10.89
2023-05-11T19:12:13.918Z,10.89
2023-05-11T19:15:56.603Z,10.92
2023-05-11T19:19:39.368Z,10.90
2023-05-11T19:23:22.047Z,10.90
2023-05-11T19:27:07.801Z,10.89
2023-05-11T19:31:00.698Z,10.91
2023-05-11T19:34:43.421Z,10.80
2023-05-11T19:38:26.484Z,10.78
2023-05-11T19:42:09.483Z,10.81
2023-05-11T19:45:56.641Z,10.80
2023-05-11T19:49:39.385Z,10.84
2023-05-11T19:53:22.084Z,10.82
2023-05-11T19:57:05.477Z,10.77
2023-05-11T20:00:51.654Z,10.83
2023-05-11T20:04:36.162Z,10.88
2023-05-11T20:08:19.015Z,10.86
2023-05-11T20:12:02.125Z,10.83
2023-05-11T20:15:44.867Z,10.71
2023-05-11T20:19:27.556Z,10.53
2023-05-11T20:23:14.476Z,10.26
2023-05-11T20:26:57.133Z,10.22
2023-05-11T20:30:39.751Z,10.28
2023-05-11T20:34:22.655Z,10.38
2023-05-11T20:38:08.513Z,10.41
2023-05-11T20:41:52.803Z,10.43
2023-05-11T20:45:35.619Z,10.42
2023-05-11T20:49:30.794Z,10.40
2023-05-11T20:53:17.836Z,10.45
2023-05-11T20:57:02.465Z,10.55
2023-05-11T21:00:45.343Z,10.62
2023-05-11T21:04:29.753Z,10.71
2023-05-11T21:08:12.918Z,10.84
2023-05-11T21:11:55.646Z,10.95
2023-05-11T21:15:39.716Z,11.03
2023-05-11T21:19:22.439Z,11.08
2023-05-11T21:23:05.474Z,11.11
2023-05-11T21:26:49.776Z,11.11
2023-05-11T21:30:32.714Z,11.13
2023-05-11T21:34:18.144Z,11.13
2023-05-11T21:38:00.868Z,11.14
2023-05-11T21:41:43.554Z,11.13
2023-05-11T21:45:27.324Z,11.15
2023-05-11T21:49:10.158Z,11.16
2023-05-11T21:52:54.246Z,11.14
2023-05-11T21:56:36.982Z,11.13
2023-05-11T22:00:22.418Z,11.16
2023-05-11T22:04:05.751Z,11.17
2023-05-11T22:07:49.109Z,11.22
2023-05-11T22:11:39.661Z,11.27
2023-05-11T22:15:22.639Z,11.30
2023-05-11T22:19:05.402Z,11.27
2023-05-11T22:22:48.201Z,11.18
2023-05-11T22:26:31.061Z,11.11
2023-05-11T22:30:15.467Z,11.04
2023-05-11T22:33:59.099Z,10.99
2023-05-11T22:37:41.851Z,11.02
2023-05-11T22:41:24.676Z,10.99
2023-05-11T22:45:08.644Z,10.99
2023-05-11T22:48:52.687Z,10.95
2023-05-11T22:52:35.432Z,10.91
2023-05-11T22:56:18.262Z,10.87
2023-05-11T23:00:00.914Z,10.83
2023-05-11T23:03:43.669Z,10.73
2023-05-11T23:07:27.767Z,10.74
2023-05-11T23:11:10.442Z,10.72
2023-05-11T23:14:53.401Z,10.69
2023-05-11T23:18:36.295Z,10.68
2023-05-11T23:22:22.478Z,10.63
2023-05-11T23:26:06.546Z,10.61
2023-05-11T23:29:50.543Z,10.59
2023-05-11T23:33:33.236Z,10.58
2023-05-11T23:37:16.975Z,10.58
2023-05-11T23:40:59.625Z,10.59
2023-05-11T23:44:43.947Z,10.57
2023-05-11T23:48:26.570Z,10.55
2023-05-11T23:52:09.504Z,10.49
2023-05-11T23:55:52.197Z,10.49
2023-05-11T23:59:34.880Z,10.45
